首页
METAR-TAF:

METAR-TAF

机场 :

Easton, 马里兰州, 美国

纬度: 38-48N, 经度: 076-04W, 海拔: 22米

当前天气观测

该预报发布于37分钟前的15:50 UTC
风速9节,风向东北
温度 10°C
湿度 43%
气压 1026 hPa
能見度: 16.1公里
散云层高于15000英尺

METAR: KESN 171550Z 04009KT 10SM SCT150 10/M02 A3030

时间: 11:27 (16:27 UTC)


TAF: 丢失

超过4000个机场的气象观测和天气预报(METAR&TAF报告)。

可查询的气象台以黄色和红色小点在地图上表示。

将鼠标移到小点上方,可查看气象台名称。

然后点击查看天气观测和预报。

如需切换地图:点击带黑十字的绿色按钮放大地图;点击带横线的绿色按钮缩小地图;或者点击绿色箭头查看邻近地区的地图。


METAR-TAF: